Time;durP1;ratioP1;P1;durP2;ratioP2;P2;SDS_P1;SDS_P2;PMS_P1;PMS_P2;Temp;Humidity;BMP_temperature;BMP_pressure;BME280_temperature;BME280_humidity;BME280_pressure;Samples;Min_cycle;Max_cycle;Signal;HPM_P1;HPM_P2
2021/11/27 00:01:00;;;;;;;0.85;0.63;;;;;;;-145.06;0.00;60892.56;4816040;28;20073;-87
2021/11/27 00:03:40;;;;;;;0.50;0.50;;;;;;;6.79;0.00;60892.56;4807502;28;20034;-87
2021/11/27 00:06:21;;;;;;;0.40;0.30;;;;;;;-145.06;0.00;60892.56;4825998;28;20033;-86
2021/11/27 00:09:00;;;;;;;0.40;0.40;;;;;;;6.79;0.00;60892.56;4810924;28;20026;-87
2021/11/27 00:11:40;;;;;;;;;;;;;;;-145.06;0.00;60892.56;4812693;28;20066;-86
2021/11/27 00:14:20;;;;;;;0.40;0.40;;;;;;;-145.06;0.00;60892.56;4814979;28;19918;-87
2021/11/27 00:17:00;;;;;;;0.40;0.40;;;;;;;6.79;0.00;60892.56;4815977;28;20038;-86
2021/11/27 00:19:39;;;;;;;0.40;0.40;;;;;;;6.79;0.00;60892.56;4812824;28;20034;-87
2021/11/27 00:22:17;;;;;;;0.30;0.30;;;;;;;8.08;0.00;60892.56;4819953;28;20038;-87
2021/11/27 00:24:56;;;;;;;0.35;0.35;;;;;;;-145.06;0.00;60892.56;4823641;28;20034;-87
2021/11/27 00:27:35;;;;;;;0.50;0.30;;;;;;;6.79;0.00;60892.56;4815003;28;20034;-86
2021/11/27 00:30:21;;;;;;;0.68;0.50;;;;;;;-145.06;0.00;60892.56;4808584;28;20110;-88
2021/11/27 00:33:01;;;;;;;0.45;0.40;;;;;;;6.79;0.00;60892.56;4813892;28;20034;-87
2021/11/27 00:35:41;;;;;;;0.40;0.40;;;;;;;6.14;0.00;60892.56;4829480;28;20042;-87
2021/11/27 00:38:21;;;;;;;0.50;0.50;;;;;;;-145.06;0.00;60892.56;4822161;28;20042;-86
2021/11/27 00:41:00;;;;;;;0.70;0.60;;;;;;;5.76;0.00;60892.56;4821273;28;20049;-87
2021/11/27 00:43:40;;;;;;;0.47;0.38;;;;;;;-145.06;0.00;60892.56;4817536;28;20021;-88
2021/11/27 00:46:19;;;;;;;;;;;;;;;-145.06;0.00;60892.56;4814777;28;20039;-88
2021/11/27 00:48:58;;;;;;;0.60;0.50;;;;;;;-145.06;0.00;60892.56;4815336;28;20633;-87
2021/11/27 00:51:37;;;;;;;0.50;0.50;;;;;;;6.79;0.00;60892.56;4818268;28;20369;-87
2021/11/27 00:54:19;;;;;;;0.40;0.40;;;;;;;6.79;0.00;60892.56;4807675;28;20352;-87
2021/11/27 00:56:58;;;;;;;0.30;0.30;;;;;;;-145.06;0.00;60892.56;4824045;28;20042;-87
2021/11/27 00:59:38;;;;;;;0.30;0.30;;;;;;;-145.06;0.00;60892.56;4808183;28;20022;-87
2021/11/27 01:02:17;;;;;;;0.35;0.35;;;;;;;6.79;0.00;60892.56;4823714;28;20066;-86
2021/11/27 01:04:56;;;;;;;0.40;0.40;;;;;;;8.08;0.00;60892.56;4815155;28;20030;-86
2021/11/27 01:07:35;;;;;;;0.40;0.40;;;;;;;-145.06;0.00;60892.56;4818219;28;20065;-86
2021/11/27 01:10:22;;;;;;;0.22;0.22;;;;;;;-145.06;0.00;60892.56;4816070;28;20034;-86
2021/11/27 01:13:02;;;;;;;0.30;0.30;;;;;;;8.08;0.00;60892.56;4815542;28;20034;-87
2021/11/27 01:15:41;;;;;;;;;;;;;;;-145.06;0.00;60892.56;4819651;28;20034;-87
2021/11/27 01:18:21;;;;;;;0.30;0.30;;;;;;;-145.06;0.00;60892.56;4810485;28;19917;-87
2021/11/27 01:21:04;;;;;;;0.40;0.40;;;;;;;8.08;0.00;60892.56;4811786;28;20584;-87
2021/11/27 01:23:44;;;;;;;0.30;0.30;;;;;;;8.08;0.00;60892.56;4816728;28;20026;-87
2021/11/27 01:26:23;;;;;;;0.85;0.40;;;;;;;6.79;0.00;60892.56;4813838;28;20464;-88
2021/11/27 01:29:04;;;;;;;0.40;0.40;;;;;;;-145.06;0.00;60892.56;4814435;28;20030;-87
2021/11/27 01:31:43;;;;;;;0.40;0.40;;;;;;;10.68;0.00;60892.56;4811473;28;20266;-87
2021/11/27 01:34:22;;;;;;;0.40;0.40;;;;;;;-145.06;0.00;60892.56;4815944;28;20038;-87
2021/11/27 01:37:01;;;;;;;0.45;0.45;;;;;;;6.14;0.00;60892.56;4817847;28;20595;-87
2021/11/27 01:39:41;;;;;;;2.35;0.57;;;;;;;-145.06;0.00;60892.56;4806799;28;20667;-87
2021/11/27 01:42:20;;;;;;;0.40;0.40;;;;;;;8.08;0.00;60892.56;4825147;28;20035;-88
2021/11/27 01:44:59;;;;;;;0.38;0.38;;;;;;;-145.06;0.00;60892.56;4810093;28;20038;-87
2021/11/27 01:47:39;;;;;;;0.80;0.53;;;;;;;6.79;0.00;60892.56;4809697;28;20042;-88
2021/11/27 01:50:19;;;;;;;;;;;;;;;-145.06;0.00;60892.56;4815912;28;20046;-87
2021/11/27 01:52:59;;;;;;;0.60;0.60;;;;;;;-145.06;0.00;60892.56;4823287;28;19913;-86
2021/11/27 01:55:39;;;;;;;0.50;0.50;;;;;;;10.68;0.00;60892.56;4811159;28;20035;-86
2021/11/27 01:58:19;;;;;;;0.63;0.63;;;;;;;-145.06;0.00;60892.56;4817484;28;20046;-88
2021/11/27 02:01:01;;;;;;;;;;;;;;;-145.06;0.00;60892.56;4807958;28;20484;-88
2021/11/27 02:03:41;;;;;;;0.40;0.40;;;;;;;-145.06;0.00;60892.56;4820764;28;19938;-87
2021/11/27 02:06:23;;;;;;;0.60;0.60;;;;;;;5.36;0.00;60892.56;4807452;28;20066;-87
2021/11/27 02:09:06;;;;;;;0.50;0.50;;;;;;;5.33;0.00;60892.56;4814844;28;20061;-88
2021/11/27 02:11:46;;;;;;;0.90;0.50;;;;;;;5.30;0.00;60892.56;4817777;28;20611;-87
2021/11/27 02:14:26;;;;;;;0.57;0.57;;;;;;;-145.06;0.00;60892.56;4812454;28;20113;-87
2021/11/27 02:17:05;;;;;;;0.43;0.43;;;;;;;-145.06;0.00;60892.56;4806470;28;20035;-87
2021/11/27 02:19:44;;;;;;;0.52;0.50;;;;;;;-145.06;0.00;60892.56;4807238;28;20034;-88
2021/11/27 02:22:24;;;;;;;0.68;0.60;;;;;;;-145.06;0.00;60892.56;4805278;28;20043;-88
2021/11/27 02:25:06;;;;;;;0.68;0.50;;;;;;;-145.06;0.00;60892.56;4810709;28;20027;-88
2021/11/27 02:27:48;;;;;;;0.47;0.38;;;;;;;-145.06;0.00;60892.56;4812692;28;20046;-87
2021/11/27 02:30:27;;;;;;;0.68;0.50;;;;;;;-145.06;0.00;60892.56;4807320;28;20034;-87
2021/11/27 02:33:07;;;;;;;0.70;0.50;;;;;;;5.49;0.00;60892.56;4828065;28;20070;-86
2021/11/27 02:35:46;;;;;;;0.40;0.40;;;;;;;-145.06;0.00;60892.56;4813062;28;20524;-88
2021/11/27 02:38:25;;;;;;;0.90;0.55;;;;;;;-145.06;0.00;60892.56;4814230;28;20042;-87
2021/11/27 02:41:05;;;;;;;0.50;0.50;;;;;;;-145.06;0.00;60892.56;4816587;28;20054;-87
2021/11/27 02:43:44;;;;;;;0.80;0.73;;;;;;;-145.06;0.00;60892.56;4826105;28;20030;-87
2021/11/27 02:46:23;;;;;;;0.55;0.50;;;;;;;-145.06;0.00;60892.56;4819826;28;20058;-87
2021/11/27 02:49:03;;;;;;;0.70;0.70;;;;;;;-145.06;0.00;60892.56;4828010;28;20034;-88
2021/11/27 02:51:42;;;;;;;0.47;0.47;;;;;;;-145.06;0.00;60892.56;4823092;28;20034;-87
2021/11/27 02:54:22;;;;;;;0.60;0.60;;;;;;;-145.06;0.00;60892.56;4808878;28;20106;-87
2021/11/27 02:57:01;;;;;;;0.88;0.60;;;;;;;-145.06;0.00;60892.56;4810883;28;20034;-86
2021/11/27 02:59:40;;;;;;;0.65;0.55;;;;;;;-145.06;0.00;60892.56;4817948;28;20042;-88
2021/11/27 03:02:19;;;;;;;0.50;0.50;;;;;;;-145.06;0.00;60892.56;4817994;28;20500;-87
2021/11/27 03:04:58;;;;;;;0.57;0.57;;;;;;;-145.06;0.00;60892.56;4821324;28;20046;-87
2021/11/27 03:07:38;;;;;;;0.70;0.70;;;;;;;-145.06;0.00;60892.56;4825136;28;20853;-87
2021/11/27 03:10:18;;;;;;;0.60;0.60;;;;;;;-145.06;0.00;60892.56;4812891;28;20038;-87
2021/11/27 03:12:58;;;;;;;1.13;0.60;;;;;;;-145.06;0.00;60892.56;4823760;28;20061;-88
2021/11/27 03:15:48;;;;;;;0.55;0.55;;;;;;;-145.06;0.00;60892.56;4814946;28;20047;-87
2021/11/27 03:18:27;;;;;;;0.60;0.60;;;;;;;-145.06;0.00;60892.56;4819244;28;20046;-87
2021/11/27 03:21:06;;;;;;;0.50;0.50;;;;;;;-145.06;0.00;60892.56;4815540;28;20038;-87
2021/11/27 03:23:46;;;;;;;0.52;0.52;;;;;;;-145.06;0.00;60892.56;4819012;28;20030;-87
2021/11/27 03:26:25;;;;;;;0.80;0.60;;;;;;;-145.06;0.00;60892.56;4824573;28;20033;-87
2021/11/27 03:29:04;;;;;;;0.70;0.60;;;;;;;-145.06;0.00;60892.56;4810354;28;20038;-88
2021/11/27 03:31:44;;;;;;;1.00;0.90;;;;;;;-145.06;0.00;60892.56;4816947;28;20622;-87
2021/11/27 03:34:23;;;;;;;0.70;0.70;;;;;;;-145.06;0.00;60892.56;4816823;28;20121;-88
2021/11/27 03:37:02;;;;;;;0.60;0.60;;;;;;;-145.06;0.00;60892.56;4814262;28;20038;-87
2021/11/27 03:39:42;;;;;;;1.38;0.80;;;;;;;-145.06;0.00;60892.56;4832395;28;20034;-87
2021/11/27 03:42:21;;;;;;;0.82;0.70;;;;;;;-145.06;0.00;60892.56;4810496;28;20122;-86
2021/11/27 03:45:00;;;;;;;1.08;0.70;;;;;;;-145.06;0.00;60892.56;4812348;28;20373;-87
2021/11/27 03:48:25;;;;;;;1.20;0.82;;;;;;;-145.06;0.00;60892.56;4816587;28;20042;-88
2021/11/27 03:51:07;;;;;;;0.70;0.70;;;;;;;-145.06;0.00;60892.56;4812639;28;20385;-88
2021/11/27 03:53:48;;;;;;;0.75;0.75;;;;;;;-145.06;0.00;60892.56;4814018;28;20039;-86
2021/11/27 03:56:29;;;;;;;0.90;0.77;;;;;;;-145.06;0.00;60892.56;4820611;28;20034;-87
2021/11/27 03:59:09;;;;;;;0.70;0.70;;;;;;;-145.06;0.00;60892.56;4817280;28;20031;-87
2021/11/27 04:01:48;;;;;;;0.70;0.70;;;;;;;-145.06;0.00;60892.56;4814555;28;20094;-87
2021/11/27 04:04:28;;;;;;;1.50;0.70;;;;;;;-145.06;0.00;60892.56;4817044;28;20273;-88
2021/11/27 04:07:07;;;;;;;1.17;1.05;;;;;;;-145.06;0.00;60892.56;4814491;28;20034;-87
2021/11/27 04:09:46;;;;;;;0.95;0.90;;;;;;;-145.06;0.00;60892.56;4819771;28;20038;-87
2021/11/27 04:12:25;;;;;;;0.77;0.77;;;;;;;-145.06;0.00;60892.56;4811978;28;20121;-88
2021/11/27 04:15:05;;;;;;;1.10;1.00;;;;;;;-145.06;0.00;60892.56;4818596;28;20038;-88
2021/11/27 04:17:44;;;;;;;1.67;1.30;;;;;;;-145.06;0.00;60892.56;4814647;28;20273;-86
2021/11/27 04:20:23;;;;;;;1.53;1.23;;;;;;;-145.06;0.00;60892.56;4806434;28;20030;-87
2021/11/27 04:23:03;;;;;;;1.35;1.25;;;;;;;-145.06;0.00;60892.56;4813547;28;20026;-88
2021/11/27 04:25:42;;;;;;;1.20;1.10;;;;;;;-145.06;0.00;60892.56;4817980;28;20492;-87
2021/11/27 04:28:21;;;;;;;1.25;1.15;;;;;;;-145.06;0.00;60892.56;4818763;28;20038;-88
2021/11/27 04:31:00;;;;;;;1.70;1.60;;;;;;;4.51;0.00;60892.56;4812802;28;20507;-87
2021/11/27 04:33:39;;;;;;;1.58;1.20;;;;;;;-145.06;0.00;60892.56;4804295;28;20039;-87
2021/11/27 04:36:20;;;;;;;3.43;1.80;;;;;;;-145.06;0.00;60892.56;4811396;28;20476;-87
2021/11/27 04:38:59;;;;;;;1.70;1.60;;;;;;;-145.06;0.00;60892.56;4813376;28;20282;-86
2021/11/27 04:41:38;;;;;;;1.70;1.60;;;;;;;10.68;0.00;60892.56;4810863;28;20026;-87
2021/11/27 04:44:17;;;;;;;1.38;1.27;;;;;;;4.84;0.00;60892.56;4829493;28;20046;-87
2021/11/27 04:46:57;;;;;;;1.50;1.40;;;;;;;-145.06;0.00;60892.56;4828538;28;20117;-87
2021/11/27 04:49:36;;;;;;;1.77;1.53;;;;;;;5.49;0.00;60892.56;4813712;28;20034;-87
2021/11/27 04:52:15;;;;;;;1.67;1.47;;;;;;;-145.06;0.00;60892.56;4812126;28;20282;-88
2021/11/27 04:54:54;;;;;;;1.60;1.50;;;;;;;-145.06;0.00;60892.56;4811593;28;20278;-87
2021/11/27 04:57:33;;;;;;;1.73;1.60;;;;;;;-145.06;0.00;60892.56;4806382;28;20031;-87
2021/11/27 05:00:21;;;;;;;2.70;1.70;;;;;;;4.19;0.00;60892.56;4801786;28;20626;-87
2021/11/27 05:03:00;;;;;;;1.73;1.63;;;;;;;-145.06;0.00;60892.56;4812825;28;20557;-87
2021/11/27 05:05:39;;;;;;;1.90;1.58;;;;;;;-145.06;0.00;60892.56;4815850;28;20031;-87
2021/11/27 05:08:17;;;;;;;1.85;1.60;;;;;;;-145.06;0.00;60892.56;4822279;28;20026;-88
2021/11/27 05:10:56;;;;;;;1.50;1.40;;;;;;;-145.06;0.00;60892.56;4811968;28;20022;-87
2021/11/27 05:13:39;;;;;;;2.42;1.55;;;;;;;-145.06;0.00;60892.56;4812655;28;20030;-87
2021/11/27 05:16:18;;;;;;;1.77;1.58;;;;;;;-145.06;0.00;60892.56;4837332;28;20037;-88
2021/11/27 05:18:58;;;;;;;2.00;1.80;;;;;;;4.19;0.00;60892.56;4799357;28;20113;-87
2021/11/27 05:21:37;;;;;;;2.35;2.15;;;;;;;-145.06;0.00;60892.56;4800827;28;20117;-85
2021/11/27 05:24:16;;;;;;;2.33;2.00;;;;;;;-145.06;0.00;60892.56;4800797;28;20421;-86
2021/11/27 05:26:55;;;;;;;2.10;1.85;;;;;;;-145.06;0.00;60892.56;4800674;28;20274;-88
2021/11/27 05:29:33;;;;;;;2.00;1.80;;;;;;;-145.06;0.00;60892.56;4813669;28;20365;-87
2021/11/27 05:32:23;;;;;;;1.90;1.70;;;;;;;-145.06;0.00;60892.56;4810876;28;20035;-86
2021/11/27 05:35:02;;;;;;;2.08;1.88;;;;;;;-145.06;0.00;60892.56;4812042;28;20026;-86
2021/11/27 05:37:43;;;;;;;2.53;1.65;;;;;;;-145.06;0.00;60892.56;4822814;28;20038;-87
2021/11/27 05:40:22;;;;;;;1.50;1.40;;;;;;;-145.06;0.00;60892.56;4811428;28;20113;-88
2021/11/27 05:43:03;;;;;;;1.63;1.53;;;;;;;-145.06;0.00;60892.56;4818002;28;20041;-88
2021/11/27 05:45:42;;;;;;;1.95;1.75;;;;;;;-145.06;0.00;60892.56;4832322;28;20042;-87
2021/11/27 05:48:21;;;;;;;2.03;1.70;;;;;;;-145.06;0.00;60892.56;4807784;28;20372;-88
2021/11/27 05:51:01;;;;;;;1.45;1.27;;;;;;;5.49;0.00;60892.56;4818504;28;20041;-88
2021/11/27 05:53:43;;;;;;;1.90;1.38;;;;;;;-145.06;0.00;60892.56;4803818;28;20038;-87
2021/11/27 05:56:22;;;;;;;1.60;1.50;;;;;;;-145.06;0.00;60892.56;4800364;28;20195;-87
2021/11/27 05:59:01;;;;;;;2.30;1.90;;;;;;;10.68;0.00;60892.56;4804173;28;20030;-88
2021/11/27 06:01:40;;;;;;;2.07;1.57;;;;;;;-145.06;0.00;60892.56;4817142;28;20034;-88
2021/11/27 06:04:19;;;;;;;1.73;1.50;;;;;;;-145.06;0.00;60892.56;4807733;28;20038;-87
2021/11/27 06:06:58;;;;;;;2.42;1.58;;;;;;;-145.06;0.00;60892.56;4817101;28;20046;-88
2021/11/27 06:09:37;;;;;;;2.63;2.00;;;;;;;-145.06;0.00;60892.56;4819100;28;20053;-88
2021/11/27 06:12:16;;;;;;;2.60;1.77;;;;;;;-145.06;0.00;60892.56;4817601;28;20273;-87
2021/11/27 06:14:55;;;;;;;2.20;1.93;;;;;;;-145.06;0.00;60892.56;4823731;28;20033;-88
2021/11/27 06:17:34;;;;;;;2.40;1.80;;;;;;;-145.06;0.00;60892.56;4802141;28;20030;-87
2021/11/27 06:20:13;;;;;;;2.95;2.13;;;;;;;-145.06;0.00;60892.56;4812798;28;20039;-87
2021/11/27 06:22:52;;;;;;;2.85;1.90;;;;;;;-145.06;0.00;60892.56;4804260;28;20055;-87
2021/11/27 06:25:32;;;;;;;2.27;2.07;;;;;;;-145.06;0.00;60892.56;4810791;28;20038;-88
2021/11/27 06:28:11;;;;;;;2.75;2.10;;;;;;;-145.06;0.00;60892.56;4812139;28;20031;-86
2021/11/27 06:30:50;;;;;;;1.77;1.67;;;;;;;-145.06;0.00;60892.56;4815211;28;20038;-88
2021/11/27 06:33:29;;;;;;;2.40;1.95;;;;;;;-145.06;0.00;60892.56;4803543;28;20034;-87
2021/11/27 06:36:08;;;;;;;2.60;2.08;;;;;;;-145.06;0.00;60892.56;4815739;28;20038;-87
2021/11/27 06:38:47;;;;;;;3.60;2.35;;;;;;;-145.06;0.00;60892.56;4815460;28;20033;-87
2021/11/27 06:41:26;;;;;;;3.03;2.22;;;;;;;-145.06;0.00;60892.56;4829624;28;20429;-87
2021/11/27 06:44:05;;;;;;;2.83;1.93;;;;;;;-145.06;0.00;60892.56;4823565;28;20034;-88
2021/11/27 06:46:44;;;;;;;2.97;2.00;;;;;;;-145.06;0.00;60892.56;4821656;28;20038;-86
2021/11/27 06:49:24;;;;;;;3.00;1.80;;;;;;;-145.06;0.00;60892.56;4811492;28;20065;-88
2021/11/27 06:52:03;;;;;;;2.60;1.95;;;;;;;-145.06;0.00;60892.56;4809558;28;20274;-87
2021/11/27 06:54:42;;;;;;;4.00;2.03;;;;;;;-145.06;0.00;60892.56;4802507;28;20488;-88
2021/11/27 06:57:21;;;;;;;4.47;2.08;;;;;;;10.68;0.00;60892.56;4818097;28;20042;-88
2021/11/27 07:00:01;;;;;;;1.80;1.70;;;;;;;4.18;0.00;60892.56;4809067;28;20050;-88
2021/11/27 07:02:40;;;;;;;4.28;2.00;;;;;;;-145.06;0.00;60892.56;4817320;28;20289;-89
2021/11/27 07:05:19;;;;;;;2.10;1.38;;;;;;;-145.06;0.00;60892.56;4820764;28;20038;-87
2021/11/27 07:07:58;;;;;;;2.25;1.33;;;;;;;4.16;0.00;60892.56;4816942;28;20366;-88
2021/11/27 07:10:37;;;;;;;1.48;1.38;;;;;;;4.17;0.00;60892.56;4817875;28;20672;-88
2021/11/27 07:13:18;;;;;;;1.67;1.37;;;;;;;4.16;0.00;60892.56;4822266;28;20062;-87
2021/11/27 07:15:57;;;;;;;1.63;1.23;;;;;;;-145.06;0.00;60892.56;4843728;28;20033;-87
2021/11/27 07:18:38;;;;;;;1.65;1.13;;;;;;;-145.06;0.00;60892.56;4826715;28;20035;-87
2021/11/27 07:21:17;;;;;;;1.40;1.30;;;;;;;4.19;0.00;60892.56;4813729;28;20382;-88
2021/11/27 07:23:56;;;;;;;1.40;1.00;;;;;;;4.11;0.00;60892.56;4802565;28;20038;-89
2021/11/27 07:26:35;;;;;;;2.43;1.13;;;;;;;4.13;0.00;60892.56;4818533;28;20030;-87
2021/11/27 07:29:14;;;;;;;1.00;0.90;;;;;;;4.09;0.00;60892.56;4819805;28;20057;-88
2021/11/27 07:31:53;;;;;;;1.02;0.95;;;;;;;10.68;0.00;60892.56;4823736;28;20033;-88
2021/11/27 07:34:32;;;;;;;1.00;0.80;;;;;;;187.52;0.00;60892.56;4825264;28;20035;-88
2021/11/27 07:37:11;;;;;;;1.45;1.05;;;;;;;4.19;0.00;60892.56;4829474;28;20112;-88
2021/11/27 07:39:49;;;;;;;1.58;0.88;;;;;;;4.19;0.00;60892.56;4816811;28;20035;-87
2021/11/27 07:42:28;;;;;;;1.50;0.97;;;;;;;-145.06;0.00;60892.56;4825503;28;20443;-88
2021/11/27 07:45:08;;;;;;;1.97;1.30;;;;;;;-145.06;0.00;60892.56;4812699;28;20273;-88
2021/11/27 07:47:47;;;;;;;0.95;0.93;;;;;;;-145.06;0.00;60892.56;4829335;28;20274;-88
2021/11/27 07:50:26;;;;;;;1.27;0.73;;;;;;;10.68;0.00;60892.56;4810928;28;20041;-88
2021/11/27 07:53:05;;;;;;;1.27;1.00;;;;;;;-145.06;0.00;60892.56;4807562;28;20125;-88
2021/11/27 07:55:45;;;;;;;2.25;0.93;;;;;;;-145.06;0.00;60892.56;4815823;28;20428;-87
2021/11/27 07:58:24;;;;;;;1.30;0.93;;;;;;;4.11;0.00;60892.56;4810483;28;20047;-88
2021/11/27 08:01:03;;;;;;;1.13;0.90;;;;;;;10.68;0.00;60892.56;4816509;28;20034;-87
2021/11/27 08:03:42;;;;;;;1.75;1.00;;;;;;;4.04;0.00;60892.56;4811518;28;20042;-89
2021/11/27 08:06:22;;;;;;;1.50;1.02;;;;;;;-145.06;0.00;60892.56;4818065;28;20031;-87
2021/11/27 08:09:00;;;;;;;2.70;1.20;;;;;;;-145.06;0.00;60892.56;4818288;28;20018;-88
2021/11/27 08:11:40;;;;;;;2.05;1.08;;;;;;;-145.06;0.00;60892.56;4815689;28;20058;-88
2021/11/27 08:14:19;;;;;;;1.10;1.00;;;;;;;-145.06;0.00;60892.56;4819204;28;20042;-89
2021/11/27 08:17:01;;;;;;;1.47;1.13;;;;;;;-145.06;0.00;60892.56;4812604;28;20030;-90
2021/11/27 08:19:40;;;;;;;1.52;1.20;;;;;;;-145.06;0.00;60892.56;4814710;28;20038;-87
2021/11/27 08:22:19;;;;;;;1.60;1.30;;;;;;;4.03;0.00;60892.56;4825154;28;20038;-86
2021/11/27 08:24:58;;;;;;;1.15;0.98;;;;;;;3.93;0.00;60892.56;4815395;28;20034;-87
2021/11/27 08:27:37;;;;;;;1.58;1.10;;;;;;;187.52;0.00;60892.56;4824735;28;20030;-89
2021/11/27 08:30:17;;;;;;;0.90;0.90;;;;;;;3.93;0.00;60892.56;4813557;28;20165;-89
2021/11/27 08:32:55;;;;;;;2.08;0.90;;;;;;;-145.06;0.00;60892.56;4820849;28;20025;-88
2021/11/27 08:35:35;;;;;;;1.30;1.05;;;;;;;5.49;0.00;60892.56;4810292;28;20030;-88
2021/11/27 08:38:14;;;;;;;1.30;0.88;;;;;;;-145.06;0.00;60892.56;4813841;28;20034;-87
2021/11/27 08:40:53;;;;;;;2.05;0.90;;;;;;;-145.06;0.00;60892.56;4814947;28;20030;-87
2021/11/27 08:43:32;;;;;;;0.80;0.80;;;;;;;4.02;0.00;60892.56;4804539;28;20022;-87
2021/11/27 08:46:11;;;;;;;0.82;0.80;;;;;;;3.99;0.00;60892.56;4810641;28;20034;-88
2021/11/27 08:48:50;;;;;;;0.80;0.80;;;;;;;-145.06;0.00;60892.56;4808739;28;20492;-88
2021/11/27 08:51:29;;;;;;;1.63;0.80;;;;;;;4.19;0.00;60892.56;4822735;28;20038;-88
2021/11/27 08:54:09;;;;;;;1.95;0.77;;;;;;;-145.06;0.00;60892.56;4802252;28;20551;-87
2021/11/27 08:56:49;;;;;;;2.15;1.00;;;;;;;-145.06;0.00;60892.56;4814214;28;20042;-87
2021/11/27 08:59:29;;;;;;;2.22;1.05;;;;;;;-145.06;0.00;60892.56;4813782;28;20105;-87
2021/11/27 09:02:08;;;;;;;0.98;0.80;;;;;;;187.52;0.00;60892.56;4811299;28;20039;-86
2021/11/27 09:04:47;;;;;;;2.27;1.10;;;;;;;-145.06;0.00;60892.56;4816698;28;20030;-87
2021/11/27 09:07:26;;;;;;;1.15;1.00;;;;;;;-145.06;0.00;60892.56;4814754;28;20062;-88
2021/11/27 09:10:07;;;;;;;1.05;0.95;;;;;;;-145.06;0.00;60892.56;4810359;28;20066;-88
2021/11/27 09:12:47;;;;;;;1.05;0.93;;;;;;;-145.06;0.00;60892.56;4818562;28;20042;-88
2021/11/27 09:15:26;;;;;;;2.72;1.23;;;;;;;-145.06;0.00;60892.56;4814567;28;20381;-88
2021/11/27 09:18:08;;;;;;;1.15;0.93;;;;;;;-145.06;0.00;60892.56;4808996;28;20038;-88
2021/11/27 09:20:47;;;;;;;1.08;0.90;;;;;;;4.43;0.00;60892.56;4812661;28;20476;-87
2021/11/27 09:23:26;;;;;;;1.50;0.90;;;;;;;-145.06;0.00;60892.56;4814376;28;20034;-88
2021/11/27 09:26:05;;;;;;;1.42;1.10;;;;;;;4.47;0.00;60892.56;4816798;28;20389;-88
2021/11/27 09:28:45;;;;;;;1.80;0.95;;;;;;;-145.06;0.00;60892.56;4811147;28;20038;-88
2021/11/27 09:31:24;;;;;;;2.45;1.00;;;;;;;-145.06;0.00;60892.56;4818345;28;20026;-88
2021/11/27 09:34:03;;;;;;;1.33;1.00;;;;;;;-145.06;0.00;60892.56;4818162;28;20180;-88
2021/11/27 09:36:43;;;;;;;1.45;0.98;;;;;;;-145.06;0.00;60892.56;4810317;28;20378;-88
2021/11/27 09:39:24;;;;;;;1.27;0.90;;;;;;;-145.06;0.00;60892.56;4816719;28;20031;-88
2021/11/27 09:42:03;;;;;;;1.13;0.90;;;;;;;-145.06;0.00;60892.56;4812414;28;20109;-88
2021/11/27 09:44:53;;;;;;;0.90;0.90;;;;;;;-145.06;0.00;60892.56;4808120;28;20358;-88
2021/11/27 09:47:33;;;;;;;1.80;0.80;;;;;;;-145.06;0.00;60892.56;4809924;28;20046;-87
2021/11/27 09:50:11;;;;;;;;;;;;;;;-145.06;0.00;60892.56;4820760;28;20026;-88
2021/11/27 09:52:51;;;;;;;1.27;1.10;;;;;;;-145.06;0.00;60892.56;4814616;28;20272;-88
2021/11/27 09:55:31;;;;;;;;;;;;;;;-145.06;0.00;60892.56;4816528;28;20030;-88
2021/11/27 09:58:09;;;;;;;0.70;0.70;;;;;;;-145.06;0.00;60892.56;4806684;28;19953;-88
2021/11/27 10:00:50;;;;;;;2.38;1.00;;;;;;;-145.06;0.00;60892.56;4810511;28;20130;-89
2021/11/27 10:03:30;;;;;;;2.70;1.27;;;;;;;-145.06;0.00;60892.56;4814054;28;20034;-88
2021/11/27 10:06:09;;;;;;;1.90;1.20;;;;;;;-145.06;0.00;60892.56;4809427;28;20042;-88
2021/11/27 10:08:48;;;;;;;2.20;1.00;;;;;;;-145.06;0.00;60892.56;4810891;28;20042;-90
2021/11/27 10:11:27;;;;;;;1.27;0.73;;;;;;;-145.06;0.00;60892.56;4815770;28;20499;-88
2021/11/27 10:14:07;;;;;;;2.20;1.13;;;;;;;-145.06;0.00;60892.56;4812345;28;20403;-88
2021/11/27 10:17:10;;;;;;;3.45;1.15;;;;;;;-145.06;0.00;60892.56;4813878;28;20030;-88
2021/11/27 10:19:52;;;;;;;1.55;0.93;;;;;;;4.92;0.00;60892.56;4814156;28;20485;-89
2021/11/27 10:22:37;;;;;;;2.53;1.10;;;;;;;-145.06;0.00;60892.56;4813988;28;20109;-87
2021/11/27 10:25:32;;;;;;;2.55;1.05;;;;;;;-145.06;0.00;60892.56;4817844;28;20034;-87
2021/11/27 10:28:13;;;;;;;3.35;1.00;;;;;;;-145.06;0.00;60892.56;4818154;28;20382;-88
2021/11/27 10:30:58;;;;;;;2.80;1.00;;;;;;;-145.06;0.00;60892.56;4821943;28;20030;-87
2021/11/27 10:33:37;;;;;;;1.88;1.10;;;;;;;5.16;0.00;60892.56;4824639;28;20361;-87
2021/11/27 10:36:19;;;;;;;2.35;1.30;;;;;;;5.08;0.00;60892.56;4812670;28;20030;-86
2021/11/27 10:39:07;;;;;;;2.78;1.20;;;;;;;-145.06;0.00;60892.56;4815144;28;20062;-87
2021/11/27 10:42:01;;;;;;;4.05;1.17;;;;;;;5.21;0.00;60892.56;4807862;28;20472;-88
2021/11/27 10:44:44;;;;;;;4.53;1.02;;;;;;;5.33;0.00;60892.56;4816275;28;20046;-87
2021/11/27 10:47:23;;;;;;;1.27;0.88;;;;;;;10.68;0.00;60892.56;4809476;28;20073;-87
2021/11/27 10:50:08;;;;;;;1.43;0.77;;;;;;;-145.06;0.00;60892.56;4809639;28;22237;-88
2021/11/27 10:52:52;;;;;;;3.45;1.40;;;;;;;-145.06;0.00;60892.56;4813603;28;20500;-87
2021/11/27 10:55:33;;;;;;;4.22;1.40;;;;;;;-145.06;0.00;60892.56;4811995;28;20058;-88
2021/11/27 10:58:14;;;;;;;2.63;1.23;;;;;;;-145.06;0.00;60892.56;4813567;28;20035;-86
2021/11/27 11:00:54;;;;;;;2.47;1.20;;;;;;;-145.06;0.00;60892.56;4815576;28;20110;-86
2021/11/27 11:03:37;;;;;;;2.13;1.20;;;;;;;-145.06;0.00;60892.56;4812781;28;20034;-87
2021/11/27 11:06:26;;;;;;;1.63;0.90;;;;;;;-145.06;0.00;60892.56;4814852;28;20050;-88
2021/11/27 11:09:06;;;;;;;4.03;1.48;;;;;;;-145.06;0.00;60892.56;4815470;28;20034;-87
2021/11/27 11:11:46;;;;;;;2.75;1.10;;;;;;;-145.06;0.00;60892.56;4815364;28;20042;-88
2021/11/27 11:14:28;;;;;;;2.25;1.10;;;;;;;-145.06;0.00;60892.56;4816311;28;20109;-88
2021/11/27 11:17:07;;;;;;;2.83;1.02;;;;;;;-145.06;0.00;60892.56;4814899;28;20034;-88
2021/11/27 11:19:46;;;;;;;3.78;1.08;;;;;;;-145.06;0.00;60892.56;4824373;28;20388;-87
2021/11/27 11:22:26;;;;;;;2.65;1.27;;;;;;;-145.06;0.00;60892.56;4822571;28;20038;-88
2021/11/27 11:25:08;;;;;;;3.45;0.93;;;;;;;-145.06;0.00;60892.56;4816622;28;20129;-87
2021/11/27 11:27:47;;;;;;;1.63;0.80;;;;;;;-145.06;0.00;60892.56;4818518;28;20034;-89
2021/11/27 11:30:36;;;;;;;3.13;0.93;;;;;;;-145.06;0.00;60892.56;4825943;28;20109;-87
2021/11/27 11:33:19;;;;;;;2.13;1.00;;;;;;;-145.06;0.00;60892.56;4819953;28;20350;-88
2021/11/27 11:36:00;;;;;;;2.00;0.90;;;;;;;-145.06;0.00;60892.56;4816344;28;20034;-88
2021/11/27 11:38:41;;;;;;;1.80;0.73;;;;;;;7.52;0.00;60892.56;4815785;28;20365;-89
2021/11/27 11:41:23;;;;;;;2.30;0.93;;;;;;;-145.06;0.00;60892.56;4817951;28;20034;-86
2021/11/27 11:44:03;;;;;;;2.85;0.82;;;;;;;7.59;0.00;60892.56;4831171;28;20376;-88
2021/11/27 11:46:43;;;;;;;2.63;0.85;;;;;;;-145.06;0.00;60892.56;4826124;28;20026;-88
2021/11/27 11:49:22;;;;;;;;;;;;;;;-145.06;0.00;60892.56;4820204;28;20030;-88
2021/11/27 11:52:27;;;;;;;1.58;0.80;;;;;;;7.72;0.00;60892.56;4815692;28;19914;-88
2021/11/27 11:55:11;;;;;;;2.25;0.90;;;;;;;7.74;0.00;60892.56;4811804;28;20377;-89
2021/11/27 11:57:57;;;;;;;0.95;0.63;;;;;;;-145.06;0.00;60892.56;4826727;28;20411;-89
2021/11/27 12:00:38;;;;;;;2.53;1.00;;;;;;;-145.06;0.00;60892.56;4813182;28;20758;-89
2021/11/27 12:03:22;;;;;;;4.60;0.98;;;;;;;-145.06;0.00;60892.56;4822661;28;20476;-88
2021/11/27 12:06:08;;;;;;;2.10;0.65;;;;;;;-145.06;0.00;60892.56;4814654;28;20388;-88
2021/11/27 12:08:51;;;;;;;1.08;0.55;;;;;;;-145.06;0.00;60892.56;4814981;28;20105;-88
2021/11/27 12:11:40;;;;;;;0.70;0.52;;;;;;;-145.06;0.00;60892.56;4825360;28;20045;-88
2021/11/27 12:14:22;;;;;;;1.58;0.70;;;;;;;-145.06;0.00;60892.56;4809485;28;20038;-89
2021/11/27 12:17:08;;;;;;;2.30;0.68;;;;;;;-145.06;0.00;60892.56;4825395;28;20137;-88
2021/11/27 12:19:56;;;;;;;1.02;0.60;;;;;;;-145.06;0.00;60892.56;4813948;28;20030;-89
2021/11/27 12:22:37;;;;;;;1.25;0.65;;;;;;;-145.06;0.00;60892.56;4813618;28;20419;-88
2021/11/27 12:25:20;;;;;;;1.85;0.70;;;;;;;-145.06;0.00;60892.56;4810884;28;20070;-89
2021/11/27 12:28:02;;;;;;;3.17;0.93;;;;;;;-145.06;0.00;60892.56;4815134;28;20034;-89
2021/11/27 12:30:41;;;;;;;2.17;0.90;;;;;;;-145.06;0.00;60892.56;4819707;28;20021;-89
2021/11/27 12:33:48;;;;;;;1.13;0.77;;;;;;;-145.06;0.00;60892.56;4818708;28;20073;-89
2021/11/27 12:36:31;;;;;;;5.18;1.10;;;;;;;-145.06;0.00;60892.56;4819458;28;20479;-89